sensor_id;sensor_type;location;lat;lon;timestamp;P1;P4;P2;P0;N10;N4;N25;N1;N05;TS
66745;SPS30;53658;50.742;10.864;2024-01-25T00:01:20;5.38;5.19;4.23;2.89;23.27;23.23;23.01;21.76;17.15;0.72
66745;SPS30;53658;50.742;10.864;2024-01-25T00:03:46;5.29;5.10;4.19;2.89;23.23;23.19;22.97;21.77;17.22;0.72
66745;SPS30;53658;50.742;10.864;2024-01-25T00:06:12;4.72;4.55;3.70;2.51;20.19;20.15;19.95;18.84;14.82;0.74
66745;SPS30;53658;50.742;10.864;2024-01-25T00:08:38;4.87;4.70;3.82;2.59;20.84;20.81;20.60;19.45;15.30;0.75
66745;SPS30;53658;50.742;10.864;2024-01-25T00:11:03;4.76;4.59;3.76;2.57;20.69;20.66;20.46;19.36;15.28;0.75
66745;SPS30;53658;50.742;10.864;2024-01-25T00:13:30;4.84;4.67;3.80;2.58;20.78;20.75;20.54;19.41;15.27;0.76
66745;SPS30;53658;50.742;10.864;2024-01-25T00:15:56;4.46;4.31;3.56;2.50;20.06;20.03;19.85;18.87;15.00;0.74
66745;SPS30;53658;50.742;10.864;2024-01-25T00:18:22;4.54;4.40;3.69;2.66;21.37;21.34;21.17;20.22;16.23;0.71
66745;SPS30;53658;50.742;10.864;2024-01-25T00:20:48;4.68;4.53;3.79;2.72;21.86;21.83;21.65;20.66;16.56;0.71
66745;SPS30;53658;50.742;10.864;2024-01-25T00:23:14;4.92;4.77;4.00;2.89;23.18;23.15;22.97;21.94;17.61;0.69
66745;SPS30;53658;50.742;10.864;2024-01-25T00:25:40;4.83;4.68;3.93;2.83;22.75;22.72;22.54;21.53;17.28;0.69
66745;SPS30;53658;50.742;10.864;2024-01-25T00:28:06;4.83;4.68;3.95;2.87;23.07;23.04;22.87;21.88;17.60;0.71
66745;SPS30;53658;50.742;10.864;2024-01-25T00:30:31;4.48;4.34;3.63;2.61;20.98;20.95;20.78;19.84;15.90;0.72
66745;SPS30;53658;50.742;10.864;2024-01-25T00:32:57;4.99;4.82;3.97;2.76;22.20;22.17;21.97;20.85;16.54;0.73
66745;SPS30;53658;50.742;10.864;2024-01-25T00:35:23;5.44;5.25;4.33;3.01;24.20;24.16;23.94;22.72;18.02;0.73
66745;SPS30;53658;50.742;10.864;2024-01-25T00:37:50;5.32;5.12;4.13;2.75;22.12;22.08;21.85;20.56;16.07;0.75
66745;SPS30;53658;50.742;10.864;2024-01-25T00:40:16;5.49;5.30;4.37;3.04;24.43;24.40;24.18;22.94;18.20;0.73
66745;SPS30;53658;50.742;10.864;2024-01-25T00:42:44;5.11;4.94;4.08;2.87;23.06;23.02;22.82;21.70;17.26;0.73
66745;SPS30;53658;50.742;10.864;2024-01-25T00:45:18;5.15;4.98;4.13;2.92;23.45;23.41;23.21;22.08;17.60;0.73
66745;SPS30;53658;50.742;10.864;2024-01-25T00:47:45;5.60;5.41;4.46;3.11;25.02;24.98;24.75;23.50;18.65;0.74
66745;SPS30;53658;50.742;10.864;2024-01-25T00:50:11;5.75;5.55;4.53;3.10;24.92;24.87;24.64;23.30;18.38;0.75
66745;SPS30;53658;50.742;10.864;2024-01-25T00:52:38;5.51;5.31;4.31;2.91;23.45;23.41;23.18;21.87;17.18;0.75
66745;SPS30;53658;50.742;10.864;2024-01-25T00:55:04;5.50;5.29;4.26;2.83;22.78;22.74;22.50;21.16;16.51;0.75
66745;SPS30;53658;50.742;10.864;2024-01-25T00:57:31;6.30;6.05;4.85;3.17;25.57;25.52;25.24;23.67;18.39;0.75
66745;SPS30;53658;50.742;10.864;2024-01-25T00:59:58;6.27;6.04;4.89;3.28;26.40;26.35;26.09;24.58;19.26;0.72
66745;SPS30;53658;50.742;10.864;2024-01-25T01:02:25;5.79;5.58;4.54;3.07;24.73;24.69;24.45;23.08;18.14;0.72
66745;SPS30;53658;50.742;10.864;2024-01-25T01:04:56;5.76;5.56;4.57;3.16;25.39;25.35;25.12;23.81;18.85;0.72
66745;SPS30;53658;50.742;10.864;2024-01-25T01:07:23;5.91;5.68;4.55;2.97;23.93;23.89;23.62;22.14;17.19;0.76
66745;SPS30;53658;50.742;10.864;2024-01-25T01:09:49;6.17;5.93;4.72;3.06;24.67;24.62;24.34;22.78;17.63;0.77
66745;SPS30;53658;50.742;10.864;2024-01-25T01:12:15;6.00;5.78;4.65;3.08;24.76;24.72;24.45;22.98;17.92;0.76
66745;SPS30;53658;50.742;10.864;2024-01-25T01:14:42;5.53;5.33;4.33;2.92;23.47;23.43;23.19;21.88;17.17;0.75
66745;SPS30;53658;50.742;10.864;2024-01-25T01:17:08;5.72;5.52;4.51;3.10;24.91;24.87;24.63;23.31;18.41;0.73
66745;SPS30;53658;50.742;10.864;2024-01-25T01:19:33;5.82;5.60;4.53;3.03;24.38;24.34;24.09;22.68;17.75;0.75
66745;SPS30;53658;50.742;10.864;2024-01-25T01:21:59;5.72;5.50;4.42;2.91;23.45;23.41;23.16;21.75;16.94;0.77
66745;SPS30;53658;50.742;10.864;2024-01-25T01:24:25;5.74;5.52;4.38;2.82;22.72;22.67;22.41;20.94;16.16;0.79
66745;SPS30;53658;50.742;10.864;2024-01-25T01:26:51;5.81;5.58;4.41;2.81;22.68;22.63;22.36;20.86;16.04;0.80
66745;SPS30;53658;50.742;10.864;2024-01-25T01:29:17;6.14;5.90;4.71;3.06;24.64;24.59;24.31;22.77;17.64;0.79
66745;SPS30;53658;50.742;10.864;2024-01-25T01:31:43;5.77;5.55;4.47;2.96;23.81;23.77;23.51;22.10;17.23;0.77
66745;SPS30;53658;50.742;10.864;2024-01-25T01:34:10;5.24;5.05;4.06;2.69;21.68;21.64;21.41;20.12;15.70;0.77
66745;SPS30;53658;50.742;10.864;2024-01-25T01:36:38;5.29;5.09;4.08;2.68;21.62;21.57;21.34;20.03;15.59;0.76
66745;SPS30;53658;50.742;10.864;2024-01-25T01:39:04;6.61;6.34;5.01;3.18;25.64;25.59;25.28;23.56;18.09;0.79
66745;SPS30;53658;50.742;10.864;2024-01-25T01:41:31;7.01;6.73;5.32;3.38;27.22;27.17;26.84;25.02;19.22;0.79
66745;SPS30;53658;50.742;10.864;2024-01-25T01:43:57;5.90;5.68;4.62;3.13;25.17;25.13;24.88;23.49;18.46;0.75
66745;SPS30;53658;50.742;10.864;2024-01-25T01:46:36;5.78;5.57;4.52;3.05;24.53;24.49;24.24;22.87;17.96;0.75
66745;SPS30;53658;50.742;10.864;2024-01-25T01:49:06;5.15;4.96;3.99;2.65;21.34;21.30;21.07;19.82;15.47;0.75
66745;SPS30;53658;50.742;10.864;2024-01-25T01:51:36;5.91;5.68;4.52;2.91;23.48;23.43;23.16;21.66;16.73;0.77
66745;SPS30;53658;50.742;10.864;2024-01-25T01:54:06;6.17;5.92;4.67;2.97;23.91;23.86;23.57;21.96;16.86;0.78
66745;SPS30;53658;50.742;10.864;2024-01-25T01:56:33;5.83;5.60;4.42;2.80;22.61;22.56;22.29;20.77;15.95;0.79
66745;SPS30;53658;50.742;10.864;2024-01-25T01:59:00;5.92;5.68;4.50;2.88;23.21;23.16;22.89;21.36;16.45;0.78
66745;SPS30;53658;50.742;10.864;2024-01-25T02:01:27;5.48;5.27;4.18;2.69;21.67;21.63;21.38;19.98;15.42;0.77
66745;SPS30;53658;50.742;10.864;2024-01-25T02:03:54;5.50;5.30;4.29;2.88;23.22;23.17;22.94;21.63;16.96;0.74
66745;SPS30;53658;50.742;10.864;2024-01-25T02:06:24;5.00;4.83;3.99;2.80;22.48;22.45;22.25;21.14;16.80;0.72
66745;SPS30;53658;50.742;10.864;2024-01-25T02:08:50;5.34;5.16;4.21;2.88;23.15;23.11;22.89;21.65;17.07;0.73
66745;SPS30;53658;50.742;10.864;2024-01-25T02:11:18;5.83;5.61;4.52;3.00;24.12;24.08;23.82;22.40;17.48;0.76
66745;SPS30;53658;50.742;10.864;2024-01-25T02:13:45;5.66;5.45;4.40;2.94;23.64;23.60;23.35;21.98;17.19;0.76
66745;SPS30;53658;50.742;10.864;2024-01-25T02:16:12;5.63;5.41;4.32;2.80;22.58;22.53;22.28;20.86;16.15;0.77
66745;SPS30;53658;50.742;10.864;2024-01-25T02:18:40;6.27;6.02;4.78;3.07;24.76;24.71;24.42;22.82;17.60;0.77
66745;SPS30;53658;50.742;10.864;2024-01-25T02:21:07;5.75;5.53;4.45;2.94;23.66;23.61;23.36;21.94;17.10;0.77
66745;SPS30;53658;50.742;10.864;2024-01-25T02:23:33;5.81;5.60;4.52;3.02;24.30;24.25;24.00;22.60;17.68;0.78
66745;SPS30;53658;50.742;10.864;2024-01-25T02:25:59;5.70;5.49;4.44;2.96;23.86;23.82;23.57;22.20;17.37;0.77
66745;SPS30;53658;50.742;10.864;2024-01-25T02:28:25;5.22;5.05;4.16;2.91;23.36;23.33;23.12;21.95;17.43;0.74
66745;SPS30;53658;50.742;10.864;2024-01-25T02:30:50;5.21;5.03;4.14;2.88;23.14;23.11;22.90;21.72;17.23;0.75
66745;SPS30;53658;50.742;10.864;2024-01-25T02:33:16;5.97;5.77;4.75;3.30;26.53;26.48;26.24;24.90;19.74;0.74
66745;SPS30;53658;50.742;10.864;2024-01-25T02:35:42;6.36;6.12;4.94;3.28;26.44;26.39;26.11;24.57;19.19;0.75
66745;SPS30;53658;50.742;10.864;2024-01-25T02:38:08;6.99;6.72;5.40;3.56;28.70;28.65;28.34;26.62;20.73;0.76
66745;SPS30;53658;50.742;10.864;2024-01-25T02:40:34;5.54;5.32;4.21;2.67;21.56;21.51;21.25;19.81;15.23;0.78
66745;SPS30;53658;50.742;10.864;2024-01-25T02:43:00;6.16;5.93;4.76;3.13;25.19;25.14;24.87;23.35;18.17;0.76
66745;SPS30;53658;50.742;10.864;2024-01-25T02:45:26;5.17;4.98;4.01;2.66;21.40;21.36;21.13;19.87;15.50;0.77
66745;SPS30;53658;50.742;10.864;2024-01-25T02:47:52;5.76;5.53;4.40;2.83;22.84;22.80;22.53;21.07;16.27;0.80
66745;SPS30;53658;50.742;10.864;2024-01-25T02:50:17;6.49;6.23;4.92;3.13;25.25;25.20;24.90;23.21;17.84;0.79
66745;SPS30;53658;50.742;10.864;2024-01-25T02:52:43;6.38;6.12;4.86;3.11;25.09;25.04;24.74;23.10;17.81;0.77
66745;SPS30;53658;50.742;10.864;2024-01-25T02:55:09;5.59;5.38;4.33;2.87;23.07;23.03;22.78;21.42;16.71;0.76
66745;SPS30;53658;50.742;10.864;2024-01-25T02:57:35;5.42;5.21;4.17;2.73;22.01;21.97;21.72;20.38;15.83;0.78
66745;SPS30;53658;50.742;10.864;2024-01-25T03:00:01;5.96;5.73;4.58;2.99;24.09;24.04;23.77;22.28;17.29;0.78
66745;SPS30;53658;50.742;10.864;2024-01-25T03:02:26;6.11;5.87;4.64;2.96;23.89;23.84;23.56;21.98;16.91;0.79
66745;SPS30;53658;50.742;10.864;2024-01-25T03:04:52;6.06;5.82;4.65;3.04;24.46;24.41;24.14;22.62;17.55;0.78
66745;SPS30;53658;50.742;10.864;2024-01-25T03:07:18;5.42;5.23;4.29;2.95;23.72;23.68;23.46;22.21;17.56;0.74
66745;SPS30;53658;50.742;10.864;2024-01-25T03:09:44;5.28;5.09;4.17;2.88;23.13;23.09;22.87;21.67;17.13;0.74
66745;SPS30;53658;50.742;10.864;2024-01-25T03:12:10;6.38;6.14;4.97;3.33;26.81;26.77;26.49;24.96;19.55;0.75
66745;SPS30;53658;50.742;10.864;2024-01-25T03:14:35;5.84;5.64;4.63;3.20;25.73;25.69;25.45;24.12;19.09;0.75
66745;SPS30;53658;50.742;10.864;2024-01-25T03:17:02;5.28;5.10;4.20;2.92;23.47;23.43;23.22;22.03;17.47;0.75
66745;SPS30;53658;50.742;10.864;2024-01-25T03:19:28;4.64;4.50;3.78;2.74;21.98;21.95;21.78;20.82;16.72;0.73
66745;SPS30;53658;50.742;10.864;2024-01-25T03:21:54;5.79;5.59;4.56;3.12;25.07;25.02;24.78;23.44;18.48;0.76
66745;SPS30;53658;50.742;10.864;2024-01-25T03:24:20;5.27;5.08;4.16;2.86;23.02;22.98;22.77;21.55;17.03;0.74
66745;SPS30;53658;50.742;10.864;2024-01-25T03:26:47;5.25;5.08;4.24;3.02;24.27;24.24;24.04;22.91;18.32;0.71
66745;SPS30;53658;50.742;10.864;2024-01-25T03:29:14;5.82;5.64;4.76;3.47;27.84;27.80;27.59;26.40;21.25;0.70
66745;SPS30;53658;50.742;10.864;2024-01-25T03:31:40;5.34;5.17;4.34;3.13;25.18;25.15;24.95;23.84;19.13;0.72
66745;SPS30;53658;50.742;10.864;2024-01-25T03:34:05;5.56;5.39;4.52;3.26;26.20;26.16;25.95;24.79;19.89;0.71
66745;SPS30;53658;50.742;10.864;2024-01-25T03:36:32;5.60;5.42;4.55;3.28;26.39;26.35;26.15;24.98;20.05;0.72
66745;SPS30;53658;50.742;10.864;2024-01-25T03:38:58;5.32;5.15;4.33;3.13;25.16;25.13;24.93;23.83;19.14;0.71
66745;SPS30;53658;50.742;10.864;2024-01-25T03:41:24;5.20;5.04;4.27;3.14;25.22;25.18;25.00;23.96;19.34;0.71
66745;SPS30;53658;50.742;10.864;2024-01-25T03:43:50;5.23;5.06;4.18;2.93;23.53;23.49;23.28;22.12;17.59;0.74
66745;SPS30;53658;50.742;10.864;2024-01-25T03:46:17;5.83;5.63;4.66;3.28;26.34;26.29;26.07;24.78;19.72;0.76
66745;SPS30;53658;50.742;10.864;2024-01-25T03:48:42;6.01;5.82;4.84;3.44;27.68;27.64;27.41;26.12;20.86;0.74
66745;SPS30;53658;50.742;10.864;2024-01-25T03:51:08;6.11;5.91;4.90;3.45;27.77;27.73;27.49;26.16;20.84;0.74
66745;SPS30;53658;50.742;10.864;2024-01-25T03:53:34;5.93;5.73;4.71;3.26;26.20;26.16;25.92;24.57;19.46;0.75
66745;SPS30;53658;50.742;10.864;2024-01-25T03:56:00;5.43;5.23;4.25;2.86;23.00;22.96;22.73;21.44;16.82;0.76
66745;SPS30;53658;50.742;10.864;2024-01-25T03:58:26;6.39;6.15;4.92;3.21;25.88;25.83;25.54;23.94;18.59;0.77
66745;SPS30;53658;50.742;10.864;2024-01-25T04:00:52;6.28;6.04;4.88;3.25;26.20;26.15;25.88;24.36;19.05;0.75
66745;SPS30;53658;50.742;10.864;2024-01-25T04:03:17;5.47;5.29;4.40;3.12;25.12;25.08;24.87;23.69;18.91;0.73
66745;SPS30;53658;50.742;10.864;2024-01-25T04:05:43;5.79;5.59;4.59;3.17;25.53;25.49;25.25;23.93;18.94;0.73
66745;SPS30;53658;50.742;10.864;2024-01-25T04:08:09;4.95;4.79;4.01;2.88;23.11;23.07;22.89;21.84;17.50;0.70
66745;SPS30;53658;50.742;10.864;2024-01-25T04:10:35;5.65;5.48;4.66;3.44;27.61;27.57;27.38;26.26;21.22;0.67
66745;SPS30;53658;50.742;10.864;2024-01-25T04:13:01;5.85;5.67;4.82;3.55;28.52;28.48;28.28;27.12;21.91;0.67
66745;SPS30;53658;50.742;10.864;2024-01-25T04:15:30;5.47;5.31;4.50;3.30;26.52;26.49;26.30;25.20;20.33;0.67
66745;SPS30;53658;50.742;10.864;2024-01-25T04:17:56;5.27;5.11;4.28;3.08;24.77;24.73;24.54;23.43;18.79;0.70
66745;SPS30;53658;50.742;10.864;2024-01-25T04:20:22;5.53;5.35;4.47;3.19;25.66;25.63;25.42;24.24;19.39;0.71
66745;SPS30;53658;50.742;10.864;2024-01-25T04:22:48;5.26;5.09;4.28;3.09;24.84;24.81;24.61;23.52;18.89;0.71
66745;SPS30;53658;50.742;10.864;2024-01-25T04:25:14;6.15;5.94;4.90;3.41;27.45;27.41;27.16;25.79;20.47;0.74
66745;SPS30;53658;50.742;10.864;2024-01-25T04:27:41;5.87;5.68;4.72;3.34;26.88;26.84;26.61;25.34;20.22;0.73
66745;SPS30;53658;50.742;10.864;2024-01-25T04:30:07;5.59;5.41;4.53;3.24;26.07;26.03;25.82;24.64;19.73;0.72
66745;SPS30;53658;50.742;10.864;2024-01-25T04:32:34;5.00;4.85;4.12;3.04;24.39;24.36;24.19;23.20;18.74;0.69
66745;SPS30;53658;50.742;10.864;2024-01-25T04:35:00;5.61;5.43;4.56;3.28;26.39;26.35;26.14;24.97;20.03;0.72
66745;SPS30;53658;50.742;10.864;2024-01-25T04:37:26;5.68;5.50;4.58;3.25;26.10;26.06;25.84;24.61;19.65;0.72
66745;SPS30;53658;50.742;10.864;2024-01-25T04:39:51;5.46;5.29;4.44;3.20;25.73;25.69;25.49;24.35;19.55;0.72
66745;SPS30;53658;50.742;10.864;2024-01-25T04:42:17;5.96;5.76;4.73;3.27;26.28;26.24;26.00;24.64;19.50;0.74
66745;SPS30;53658;50.742;10.864;2024-01-25T04:44:43;5.42;5.24;4.33;3.03;24.38;24.34;24.13;22.93;18.23;0.71
66745;SPS30;53658;50.742;10.864;2024-01-25T04:47:09;5.15;5.00;4.22;3.08;24.72;24.69;24.51;23.46;18.89;0.66
66745;SPS30;53658;50.742;10.864;2024-01-25T04:49:35;5.22;5.08;4.43;3.42;27.43;27.40;27.24;26.33;21.55;0.64
66745;SPS30;53658;50.742;10.864;2024-01-25T04:52:02;4.41;4.30;3.78;2.96;23.77;23.75;23.62;22.89;18.81;0.66
66745;SPS30;53658;50.742;10.864;2024-01-25T04:54:28;4.47;4.36;3.77;2.88;23.11;23.08;22.94;22.13;18.07;0.68
66745;SPS30;53658;50.742;10.864;2024-01-25T04:56:54;5.16;5.00;4.19;3.02;24.26;24.22;24.03;22.95;18.41;0.73
66745;SPS30;53658;50.742;10.864;2024-01-25T04:59:20;4.75;4.60;3.86;2.79;22.38;22.35;22.18;21.19;17.00;0.72
66745;SPS30;53658;50.742;10.864;2024-01-25T05:01:46;4.87;4.72;3.94;2.82;22.64;22.60;22.42;21.38;17.11;0.71
66745;SPS30;53658;50.742;10.864;2024-01-25T05:04:12;4.52;4.37;3.62;2.55;20.49;20.46;20.28;19.29;15.36;0.73
66745;SPS30;53658;50.742;10.864;2024-01-25T05:06:38;4.51;4.36;3.62;2.56;20.56;20.52;20.35;19.37;15.44;0.74
66745;SPS30;53658;50.742;10.864;2024-01-25T05:09:04;4.80;4.64;3.87;2.75;22.14;22.10;21.92;20.89;16.69;0.72
66745;SPS30;53658;50.742;10.864;2024-01-25T05:11:29;5.00;4.83;3.97;2.74;22.06;22.03;21.82;20.68;16.38;0.73
66745;SPS30;53658;50.742;10.864;2024-01-25T05:13:55;4.20;4.05;3.32;2.30;18.46;18.43;18.26;17.30;13.69;0.72
66745;SPS30;53658;50.742;10.864;2024-01-25T05:16:21;4.80;4.64;3.82;2.65;21.34;21.31;21.11;20.03;15.88;0.72
66745;SPS30;53658;50.742;10.864;2024-01-25T05:18:47;4.85;4.68;3.83;2.63;21.15;21.11;20.91;19.80;15.64;0.74
66745;SPS30;53658;50.742;10.864;2024-01-25T05:21:13;4.54;4.37;3.56;2.41;19.37;19.34;19.15;18.07;14.21;0.76
66745;SPS30;53658;50.742;10.864;2024-01-25T05:23:38;4.37;4.22;3.49;2.44;19.65;19.62;19.45;18.48;14.69;0.73
66745;SPS30;53658;50.742;10.864;2024-01-25T05:26:05;4.50;4.37;3.67;2.65;21.31;21.28;21.11;20.18;16.21;0.71
66745;SPS30;53658;50.742;10.864;2024-01-25T05:28:32;4.33;4.19;3.48;2.47;19.84;19.81;19.64;18.70;14.93;0.72
66745;SPS30;53658;50.742;10.864;2024-01-25T05:30:57;4.16;4.04;3.43;2.54;20.40;20.38;20.23;19.41;15.70;0.69
66745;SPS30;53658;50.742;10.864;2024-01-25T05:33:23;3.16;3.07;2.66;2.03;16.25;16.23;16.13;15.56;12.69;0.67
66745;SPS30;53658;50.742;10.864;2024-01-25T05:35:49;3.79;3.69;3.19;2.44;19.56;19.54;19.42;18.73;15.29;0.68
66745;SPS30;53658;50.742;10.864;2024-01-25T05:38:15;3.43;3.33;2.82;2.08;16.70;16.68;16.56;15.88;12.83;0.70
66745;SPS30;53658;50.742;10.864;2024-01-25T05:40:42;3.70;3.59;3.03;2.22;17.83;17.81;17.68;16.93;13.64;0.69
66745;SPS30;53658;50.742;10.864;2024-01-25T05:43:07;3.64;3.52;2.96;2.14;17.21;17.18;17.05;16.29;13.09;0.69
66745;SPS30;53658;50.742;10.864;2024-01-25T05:45:33;4.25;4.11;3.40;2.39;19.23;19.20;19.03;18.10;14.41;0.71
66745;SPS30;53658;50.742;10.864;2024-01-25T05:47:59;4.39;4.24;3.49;2.42;19.46;19.43;19.25;18.26;14.48;0.72
66745;SPS30;53658;50.742;10.864;2024-01-25T05:50:25;3.60;3.48;2.88;2.01;16.18;16.15;16.01;15.21;12.09;0.70
66745;SPS30;53658;50.742;10.864;2024-01-25T05:52:51;3.98;3.85;3.19;2.24;18.02;17.99;17.84;16.96;13.50;0.71
66745;SPS30;53658;50.742;10.864;2024-01-25T05:55:17;3.84;3.71;3.03;2.07;16.67;16.64;16.49;15.59;12.30;0.73
66745;SPS30;53658;50.742;10.864;2024-01-25T05:57:43;3.59;3.47;2.86;2.01;16.12;16.10;15.95;15.16;12.05;0.72
66745;SPS30;53658;50.742;10.864;2024-01-25T06:00:12;3.46;3.36;2.83;2.05;16.49;16.47;16.34;15.63;12.57;0.71
66745;SPS30;53658;50.742;10.864;2024-01-25T06:02:40;3.56;3.45;2.88;2.06;16.57;16.55;16.41;15.66;12.53;0.73
66745;SPS30;53658;50.742;10.864;2024-01-25T06:05:06;3.42;3.30;2.72;1.90;15.31;15.28;15.15;14.39;11.43;0.74
66745;SPS30;53658;50.742;10.864;2024-01-25T06:07:33;3.34;3.23;2.71;1.95;15.64;15.62;15.49;14.79;11.86;0.71
66745;SPS30;53658;50.742;10.864;2024-01-25T06:09:59;4.00;3.88;3.25;2.34;18.79;18.77;18.62;17.78;14.26;0.71
66745;SPS30;53658;50.742;10.864;2024-01-25T06:12:24;4.15;4.01;3.32;2.33;18.73;18.70;18.54;17.62;14.02;0.72
66745;SPS30;53658;50.742;10.864;2024-01-25T06:14:50;3.81;3.69;3.07;2.17;17.48;17.45;17.31;16.48;13.16;0.70
66745;SPS30;53658;50.742;10.864;2024-01-25T06:17:17;3.57;3.45;2.88;2.05;16.47;16.45;16.31;15.54;12.42;0.71
66745;SPS30;53658;50.742;10.864;2024-01-25T06:19:43;4.00;3.88;3.26;2.36;18.94;18.92;18.77;17.94;14.41;0.70
66745;SPS30;53658;50.742;10.864;2024-01-25T06:22:09;3.45;3.33;2.74;1.91;15.33;15.31;15.17;14.40;11.42;0.73
66745;SPS30;53658;50.742;10.864;2024-01-25T06:24:36;3.77;3.64;2.97;2.04;16.38;16.35;16.19;15.32;12.09;0.73
66745;SPS30;53658;50.742;10.864;2024-01-25T06:27:02;3.54;3.42;2.77;1.86;14.95;14.92;14.77;13.92;10.91;0.74
66745;SPS30;53658;50.742;10.864;2024-01-25T06:29:27;3.84;3.70;3.01;2.04;16.39;16.37;16.20;15.30;12.03;0.74
66745;SPS30;53658;50.742;10.864;2024-01-25T06:31:53;3.58;3.45;2.81;1.91;15.33;15.31;15.16;14.32;11.26;0.73
66745;SPS30;53658;50.742;10.864;2024-01-25T06:34:19;3.80;3.66;2.93;1.92;15.50;15.47;15.30;14.35;11.16;0.76
66745;SPS30;53658;50.742;10.864;2024-01-25T06:36:45;4.11;3.94;3.11;1.96;15.79;15.76;15.56;14.48;11.09;0.79
66745;SPS30;53658;50.742;10.864;2024-01-25T06:39:11;3.72;3.57;2.83;1.82;14.63;14.60;14.43;13.47;10.39;0.77
66745;SPS30;53658;50.742;10.864;2024-01-25T06:41:37;4.32;4.14;3.25;2.03;16.37;16.33;16.12;14.98;11.43;0.78
66745;SPS30;53658;50.742;10.864;2024-01-25T06:44:03;4.32;4.14;3.25;2.03;16.40;16.36;16.16;15.01;11.46;0.77
66745;SPS30;53658;50.742;10.864;2024-01-25T06:46:29;3.84;3.69;2.95;1.93;15.58;15.55;15.37;14.42;11.20;0.74
66745;SPS30;53658;50.742;10.864;2024-01-25T06:48:55;4.02;3.87;3.13;2.09;16.85;16.82;16.65;15.68;12.27;0.75
66745;SPS30;53658;50.742;10.864;2024-01-25T06:51:21;3.66;3.52;2.86;1.92;15.48;15.45;15.30;14.42;11.32;0.75
66745;SPS30;53658;50.742;10.864;2024-01-25T06:53:47;3.33;3.21;2.61;1.76;14.20;14.18;14.04;13.25;10.41;0.75
66745;SPS30;53658;50.742;10.864;2024-01-25T06:56:12;3.36;3.24;2.64;1.80;14.51;14.49;14.35;13.56;10.69;0.75
66745;SPS30;53658;50.742;10.864;2024-01-25T06:58:38;3.25;3.14;2.59;1.81;14.53;14.50;14.37;13.65;10.83;0.74
66745;SPS30;53658;50.742;10.864;2024-01-25T07:01:04;3.16;3.05;2.53;1.78;14.33;14.31;14.18;13.49;10.75;0.73
66745;SPS30;53658;50.742;10.864;2024-01-25T07:03:30;3.16;3.05;2.49;1.69;13.61;13.59;13.46;12.72;10.01;0.74
66745;SPS30;53658;50.742;10.864;2024-01-25T07:05:56;3.57;3.44;2.76;1.83;14.72;14.69;14.54;13.66;10.65;0.75
66745;SPS30;53658;50.742;10.864;2024-01-25T07:08:21;3.64;3.49;2.77;1.78;14.32;14.30;14.13;13.19;10.17;0.77
66745;SPS30;53658;50.742;10.864;2024-01-25T07:10:49;3.50;3.36;2.63;1.65;13.27;13.24;13.07;12.14;9.27;0.78
66745;SPS30;53658;50.742;10.864;2024-01-25T07:13:15;4.27;4.10;3.24;2.07;16.68;16.64;16.44;15.34;11.80;0.77
66745;SPS30;53658;50.742;10.864;2024-01-25T07:15:41;3.57;3.43;2.76;1.82;14.65;14.63;14.47;13.59;10.59;0.75
66745;SPS30;53658;50.742;10.864;2024-01-25T07:18:08;3.89;3.73;2.94;1.85;14.91;14.88;14.69;13.67;10.46;0.79
66745;SPS30;53658;50.742;10.864;2024-01-25T07:20:34;3.68;3.54;2.83;1.84;14.85;14.82;14.66;13.74;10.65;0.78
66745;SPS30;53658;50.742;10.864;2024-01-25T07:23:00;3.44;3.31;2.67;1.76;14.20;14.18;14.03;13.18;10.28;0.76
66745;SPS30;53658;50.742;10.864;2024-01-25T07:25:26;3.35;3.22;2.56;1.65;13.32;13.30;13.14;12.29;9.50;0.77
66745;SPS30;53658;50.742;10.864;2024-01-25T07:27:52;3.84;3.69;2.96;1.94;15.66;15.63;15.46;14.51;11.28;0.76
66745;SPS30;53658;50.742;10.864;2024-01-25T07:30:18;3.43;3.30;2.66;1.78;14.31;14.29;14.14;13.31;10.41;0.75
66745;SPS30;53658;50.742;10.864;2024-01-25T07:32:44;2.80;2.70;2.20;1.49;12.02;12.00;11.88;11.22;8.83;0.73
66745;SPS30;53658;50.742;10.864;2024-01-25T07:35:12;3.28;3.16;2.55;1.70;13.72;13.70;13.56;12.76;9.98;0.75
66745;SPS30;53658;50.742;10.864;2024-01-25T07:37:38;3.43;3.30;2.68;1.82;14.62;14.59;14.45;13.64;10.72;0.74
66745;SPS30;53658;50.742;10.864;2024-01-25T07:40:06;2.92;2.82;2.28;1.54;12.38;12.36;12.23;11.54;9.05;0.74
66745;SPS30;53658;50.742;10.864;2024-01-25T07:42:33;2.69;2.60;2.12;1.44;11.63;11.61;11.49;10.87;8.56;0.73
66745;SPS30;53658;50.742;10.864;2024-01-25T07:44:59;3.41;3.28;2.64;1.75;14.06;14.03;13.88;13.05;10.18;0.76
66745;SPS30;53658;50.742;10.864;2024-01-25T07:47:25;2.95;2.84;2.28;1.50;12.12;12.09;11.96;11.24;8.75;0.78
66745;SPS30;53658;50.742;10.864;2024-01-25T07:49:51;2.71;2.60;2.06;1.32;10.65;10.62;10.50;9.80;7.55;0.80
66745;SPS30;53658;50.742;10.864;2024-01-25T07:52:17;3.24;3.11;2.47;1.58;12.72;12.69;12.54;11.71;9.01;0.79
66745;SPS30;53658;50.742;10.864;2024-01-25T07:54:43;3.25;3.12;2.49;1.62;13.03;13.01;12.86;12.05;9.33;0.78
66745;SPS30;53658;50.742;10.864;2024-01-25T07:57:10;2.99;2.88;2.33;1.56;12.55;12.53;12.40;11.68;9.15;0.76
66745;SPS30;53658;50.742;10.864;2024-01-25T07:59:36;3.31;3.18;2.58;1.73;13.92;13.90;13.76;12.96;10.16;0.76
66745;SPS30;53658;50.742;10.864;2024-01-25T08:02:02;2.86;2.76;2.23;1.50;12.07;12.05;11.92;11.24;8.81;0.76
66745;SPS30;53658;50.742;10.864;2024-01-25T08:04:28;2.99;2.88;2.33;1.56;12.58;12.56;12.43;11.72;9.18;0.75
66745;SPS30;53658;50.742;10.864;2024-01-25T08:06:54;3.07;2.96;2.40;1.62;13.05;13.03;12.89;12.16;9.55;0.75
66745;SPS30;53658;50.742;10.864;2024-01-25T08:09:19;3.05;2.94;2.37;1.57;12.67;12.65;12.52;11.78;9.20;0.75
66745;SPS30;53658;50.742;10.864;2024-01-25T08:11:45;2.91;2.81;2.32;1.61;12.98;12.96;12.84;12.19;9.68;0.73
66745;SPS30;53658;50.742;10.864;2024-01-25T08:14:11;2.95;2.85;2.35;1.65;13.23;13.21;13.09;12.44;9.88;0.73
66745;SPS30;53658;50.742;10.864;2024-01-25T08:16:37;3.06;2.95;2.40;1.64;13.16;13.14;13.01;12.30;9.68;0.74
66745;SPS30;53658;50.742;10.864;2024-01-25T08:19:03;2.98;2.87;2.33;1.56;12.58;12.55;12.43;11.71;9.18;0.75
66745;SPS30;53658;50.742;10.864;2024-01-25T08:21:30;2.60;2.50;2.02;1.35;10.90;10.88;10.77;10.15;7.94;0.75
66745;SPS30;53658;50.742;10.864;2024-01-25T08:23:56;2.75;2.65;2.15;1.44;11.60;11.58;11.46;10.81;8.47;0.74
66745;SPS30;53658;50.742;10.864;2024-01-25T08:26:22;2.82;2.72;2.23;1.53;12.34;12.32;12.20;11.56;9.13;0.72
66745;SPS30;53658;50.742;10.864;2024-01-25T08:28:48;3.22;3.10;2.49;1.65;13.32;13.29;13.15;12.37;9.65;0.75
66745;SPS30;53658;50.742;10.864;2024-01-25T08:31:14;2.86;2.75;2.18;1.39;11.21;11.19;11.06;10.32;7.94;0.77
66745;SPS30;53658;50.742;10.864;2024-01-25T08:33:40;2.95;2.84;2.25;1.43;11.57;11.54;11.40;10.64;8.19;0.77
66745;SPS30;53658;50.742;10.864;2024-01-25T08:36:13;2.98;2.86;2.26;1.43;11.53;11.51;11.37;10.59;8.13;0.77
66745;SPS30;53658;50.742;10.864;2024-01-25T08:38:42;5.40;5.20;4.24;2.87;23.13;23.09;22.86;21.60;16.99;0.75
66745;SPS30;53658;50.742;10.864;2024-01-25T08:41:07;24.50;24.03;21.69;17.78;142.40;142.28;141.70;138.26;114.96;0.62
66745;SPS30;53658;50.742;10.864;2024-01-25T08:43:34;6.21;6.16;5.91;5.30;42.38;42.36;42.29;41.81;35.50;0.60
66745;SPS30;53658;50.742;10.864;2024-01-25T08:46:00;5.13;5.07;4.77;4.17;33.33;33.31;33.23;32.73;27.62;0.62
66745;SPS30;53658;50.742;10.864;2024-01-25T08:48:27;5.24;5.20;4.98;4.45;35.60;35.59;35.52;35.10;29.79;0.59
66745;SPS30;53658;50.742;10.864;2024-01-25T08:50:53;3.42;3.39;3.24;2.88;23.04;23.03;22.99;22.70;19.24;0.59
66745;SPS30;53658;50.742;10.864;2024-01-25T08:53:20;6.86;6.82;6.60;6.00;47.92;47.91;47.84;47.38;40.34;0.56
66745;SPS30;53658;50.742;10.864;2024-01-25T08:55:55;42.31;42.14;41.27;38.02;303.79;303.69;303.38;301.02;257.08;0.56
66745;SPS30;53658;50.742;10.864;2024-01-25T08:58:21;10.59;10.51;10.16;9.20;73.50;73.47;73.36;72.62;61.79;0.59
66745;SPS30;53658;50.742;10.864;2024-01-25T09:00:47;7.30;7.27;7.10;6.51;52.05;52.03;51.98;51.54;43.98;0.56
66745;SPS30;53658;50.742;10.864;2024-01-25T09:03:14;6.85;6.81;6.60;6.00;47.96;47.94;47.88;47.42;40.38;0.56